sensor_id;sensor_type;location;lat;lon;timestamp;pressure;altitude;pressure_sealevel;temperature;humidity
74578;BME280;63173;49.086;33.418;2023-03-12T00:00:43;98029.06;;;9.54;100.00
74578;BME280;63173;49.086;33.418;2023-03-12T00:03:09;98029.38;;;9.52;100.00
74578;BME280;63173;49.086;33.418;2023-03-12T00:05:38;98022.41;;;9.51;100.00
74578;BME280;63173;49.086;33.418;2023-03-12T00:08:04;98014.16;;;9.60;100.00
74578;BME280;63173;49.086;33.418;2023-03-12T00:10:29;98006.25;;;9.55;100.00
74578;BME280;63173;49.086;33.418;2023-03-12T00:12:55;97999.03;;;9.59;100.00
74578;BME280;63173;49.086;33.418;2023-03-12T00:15:21;97996.91;;;9.64;100.00
74578;BME280;63173;49.086;33.418;2023-03-12T00:17:46;97995.88;;;9.57;100.00
74578;BME280;63173;49.086;33.418;2023-03-12T00:20:12;97998.25;;;9.58;100.00
74578;BME280;63173;49.086;33.418;2023-03-12T00:22:38;97992.69;;;9.55;100.00
74578;BME280;63173;49.086;33.418;2023-03-12T00:25:06;97984.41;;;9.96;100.00
74578;BME280;63173;49.086;33.418;2023-03-12T00:27:32;97985.66;;;9.98;100.00
74578;BME280;63173;49.086;33.418;2023-03-12T00:29:57;97984.41;;;9.96;100.00
74578;BME280;63173;49.086;33.418;2023-03-12T00:32:23;97980.94;;;9.50;100.00
74578;BME280;63173;49.086;33.418;2023-03-12T00:34:53;97975.06;;;9.48;100.00
74578;BME280;63173;49.086;33.418;2023-03-12T00:37:19;97973.69;;;9.42;100.00
74578;BME280;63173;49.086;33.418;2023-03-12T00:39:45;97973.56;;;9.39;100.00
74578;BME280;63173;49.086;33.418;2023-03-12T00:42:10;97980.09;;;9.83;100.00
74578;BME280;63173;49.086;33.418;2023-03-12T00:44:36;97978.31;;;9.99;100.00
74578;BME280;63173;49.086;33.418;2023-03-12T00:47:01;97970.06;;;10.07;100.00
74578;BME280;63173;49.086;33.418;2023-03-12T00:49:27;97963.72;;;10.03;100.00
74578;BME280;63173;49.086;33.418;2023-03-12T00:51:52;97968.72;;;9.89;100.00
74578;BME280;63173;49.086;33.418;2023-03-12T00:54:19;97963.41;;;9.93;100.00
74578;BME280;63173;49.086;33.418;2023-03-12T00:56:44;97962.13;;;9.90;100.00
74578;BME280;63173;49.086;33.418;2023-03-12T00:59:11;97960.22;;;9.79;100.00
74578;BME280;63173;49.086;33.418;2023-03-12T01:01:37;97958.19;;;9.76;100.00
74578;BME280;63173;49.086;33.418;2023-03-12T01:04:02;97951.41;;;9.82;100.00
74578;BME280;63173;49.086;33.418;2023-03-12T01:06:28;97954.91;;;9.82;100.00
74578;BME280;63173;49.086;33.418;2023-03-12T01:08:53;97954.47;;;9.92;100.00
74578;BME280;63173;49.086;33.418;2023-03-12T01:11:20;97956.06;;;9.93;100.00
74578;BME280;63173;49.086;33.418;2023-03-12T01:13:45;97950.06;;;9.88;100.00
74578;BME280;63173;49.086;33.418;2023-03-12T01:16:11;97950.28;;;10.07;100.00
74578;BME280;63173;49.086;33.418;2023-03-12T01:18:37;97944.06;;;10.06;100.00
74578;BME280;63173;49.086;33.418;2023-03-12T01:21:03;97943.63;;;10.04;100.00
74578;BME280;63173;49.086;33.418;2023-03-12T01:23:29;97936.94;;;9.90;100.00
74578;BME280;63173;49.086;33.418;2023-03-12T01:25:55;97940.56;;;9.94;100.00
74578;BME280;63173;49.086;33.418;2023-03-12T01:28:22;97939.09;;;9.96;100.00
74578;BME280;63173;49.086;33.418;2023-03-12T01:30:47;97939.09;;;9.96;100.00
74578;BME280;63173;49.086;33.418;2023-03-12T01:33:13;97936.28;;;9.93;100.00
74578;BME280;63173;49.086;33.418;2023-03-12T01:35:39;97928.03;;;9.89;100.00
74578;BME280;63173;49.086;33.418;2023-03-12T01:38:07;97937.28;;;9.88;100.00
74578;BME280;63173;49.086;33.418;2023-03-12T01:40:34;97944.28;;;9.77;100.00
74578;BME280;63173;49.086;33.418;2023-03-12T01:48:21;97990.91;;;8.73;100.00
74578;BME280;63173;49.086;33.418;2023-03-12T01:50:47;97987.09;;;8.53;100.00
74578;BME280;63173;49.086;33.418;2023-03-12T01:53:13;97977.53;;;8.26;100.00
74578;BME280;63173;49.086;33.418;2023-03-12T01:55:38;97988.75;;;7.70;100.00
74578;BME280;63173;49.086;33.418;2023-03-12T01:58:05;97976.75;;;7.50;100.00
74578;BME280;63173;49.086;33.418;2023-03-12T02:00:31;97987.44;;;7.30;100.00
74578;BME280;63173;49.086;33.418;2023-03-12T02:03:01;97993.50;;;7.10;100.00
74578;BME280;63173;49.086;33.418;2023-03-12T02:05:34;98002.47;;;7.48;100.00
74578;BME280;63173;49.086;33.418;2023-03-12T02:08:03;98009.81;;;7.39;100.00
74578;BME280;63173;49.086;33.418;2023-03-12T02:10:29;98005.22;;;7.39;100.00
74578;BME280;63173;49.086;33.418;2023-03-12T02:12:55;98016.34;;;7.29;100.00
74578;BME280;63173;49.086;33.418;2023-03-12T02:15:20;98027.31;;;7.24;100.00
74578;BME280;63173;49.086;33.418;2023-03-12T02:17:46;98032.41;;;6.92;100.00
74578;BME280;63173;49.086;33.418;2023-03-12T02:22:39;98047.66;;;7.05;100.00
74578;BME280;63173;49.086;33.418;2023-03-12T02:25:41;98051.16;;;7.05;100.00
74578;BME280;63173;49.086;33.418;2023-03-12T02:28:12;98055.72;;;6.88;100.00
74578;BME280;63173;49.086;33.418;2023-03-12T02:30:39;98057.94;;;6.86;100.00
74578;BME280;63173;49.086;33.418;2023-03-12T02:33:08;98067.81;;;6.90;100.00
74578;BME280;63173;49.086;33.418;2023-03-12T02:35:34;98076.69;;;6.99;100.00
74578;BME280;63173;49.086;33.418;2023-03-12T02:38:00;98078.47;;;7.04;100.00
74578;BME280;63173;49.086;33.418;2023-03-12T02:40:45;98069.41;;;7.17;100.00
74578;BME280;63173;49.086;33.418;2023-03-12T02:43:19;98089.41;;;7.16;100.00
74578;BME280;63173;49.086;33.418;2023-03-12T02:45:45;98091.63;;;7.14;100.00
74578;BME280;63173;49.086;33.418;2023-03-12T02:48:11;98092.75;;;6.96;100.00
74578;BME280;63173;49.086;33.418;2023-03-12T02:50:37;98106.06;;;6.92;100.00
74578;BME280;63173;49.086;33.418;2023-03-12T02:53:03;98098.28;;;6.91;100.00
74578;BME280;63173;49.086;33.418;2023-03-12T02:55:28;98103.34;;;6.84;100.00
74578;BME280;63173;49.086;33.418;2023-03-12T02:57:53;98109.53;;;6.76;100.00
74578;BME280;63173;49.086;33.418;2023-03-12T03:00:19;98102.53;;;6.66;100.00
74578;BME280;63173;49.086;33.418;2023-03-12T03:02:44;98110.78;;;6.70;100.00
74578;BME280;63173;49.086;33.418;2023-03-12T03:05:10;98118.38;;;6.59;100.00
74578;BME280;63173;49.086;33.418;2023-03-12T03:07:36;98145.41;;;6.37;100.00
74578;BME280;63173;49.086;33.418;2023-03-12T03:10:02;98128.66;;;6.48;100.00
74578;BME280;63173;49.086;33.418;2023-03-12T03:12:33;98143.38;;;6.42;100.00
74578;BME280;63173;49.086;33.418;2023-03-12T03:14:59;98131.44;;;6.26;100.00
74578;BME280;63173;49.086;33.418;2023-03-12T03:17:25;98141.19;;;6.14;100.00
74578;BME280;63173;49.086;33.418;2023-03-12T03:19:51;98158.59;;;6.08;100.00
74578;BME280;63173;49.086;33.418;2023-03-12T03:22:18;98143.38;;;6.03;100.00
74578;BME280;63173;49.086;33.418;2023-03-12T03:24:44;98162.34;;;5.98;100.00
74578;BME280;63173;49.086;33.418;2023-03-12T03:27:10;98157.75;;;5.99;100.00
74578;BME280;63173;49.086;33.418;2023-03-12T03:29:36;98168.78;;;5.89;100.00
74578;BME280;63173;49.086;33.418;2023-03-12T03:32:01;98164.19;;;5.89;100.00
74578;BME280;63173;49.086;33.418;2023-03-12T03:34:27;98173.50;;;5.83;100.00
74578;BME280;63173;49.086;33.418;2023-03-12T03:36:52;98163.63;;;5.79;100.00
74578;BME280;63173;49.086;33.418;2023-03-12T03:39:18;98164.84;;;5.72;100.00
74578;BME280;63173;49.086;33.418;2023-03-12T03:41:44;98193.97;;;5.70;100.00
74578;BME280;63173;49.086;33.418;2023-03-12T03:44:11;98175.25;;;5.65;100.00
74578;BME280;63173;49.086;33.418;2023-03-12T03:46:37;98182.72;;;5.68;100.00
74578;BME280;63173;49.086;33.418;2023-03-12T03:49:02;98174.47;;;5.65;100.00
74578;BME280;63173;49.086;33.418;2023-03-12T03:51:28;98185.06;;;5.61;100.00
74578;BME280;63173;49.086;33.418;2023-03-12T03:53:53;98207.19;;;5.58;100.00
74578;BME280;63173;49.086;33.418;2023-03-12T03:56:19;98204.00;;;5.56;100.00
74578;BME280;63173;49.086;33.418;2023-03-12T03:58:44;98193.44;;;5.60;100.00
74578;BME280;63173;49.086;33.418;2023-03-12T04:01:12;98206.75;;;5.43;100.00
74578;BME280;63173;49.086;33.418;2023-03-12T04:03:37;98210.00;;;5.53;100.00
74578;BME280;63173;49.086;33.418;2023-03-12T04:06:04;98205.44;;;5.54;100.00
74578;BME280;63173;49.086;33.418;2023-03-12T04:08:30;98199.25;;;5.53;100.00
74578;BME280;63173;49.086;33.418;2023-03-12T04:11:25;98223.91;;;5.47;100.00
74578;BME280;63173;49.086;33.418;2023-03-12T04:13:50;98235.63;;;5.51;100.00
74578;BME280;63173;49.086;33.418;2023-03-12T04:16:16;98229.97;;;5.52;100.00
74578;BME280;63173;49.086;33.418;2023-03-12T04:18:42;98256.50;;;5.45;100.00
74578;BME280;63173;49.086;33.418;2023-03-12T04:21:08;98269.91;;;5.23;100.00
74578;BME280;63173;49.086;33.418;2023-03-12T04:23:35;98256.13;;;5.38;100.00
74578;BME280;63173;49.086;33.418;2023-03-12T04:26:02;98264.81;;;5.35;100.00
74578;BME280;63173;49.086;33.418;2023-03-12T04:28:27;98265.19;;;5.42;100.00
74578;BME280;63173;49.086;33.418;2023-03-12T04:30:54;98270.09;;;5.27;100.00
74578;BME280;63173;49.086;33.418;2023-03-12T04:33:19;98272.66;;;5.32;100.00
74578;BME280;63173;49.086;33.418;2023-03-12T04:35:52;98294.50;;;5.30;100.00
74578;BME280;63173;49.086;33.418;2023-03-12T04:38:19;98293.72;;;5.30;100.00
74578;BME280;63173;49.086;33.418;2023-03-12T04:40:44;98308.97;;;5.21;100.00
74578;BME280;63173;49.086;33.418;2023-03-12T04:43:10;98322.34;;;5.26;100.00
74578;BME280;63173;49.086;33.418;2023-03-12T04:45:36;98336.50;;;5.18;100.00
74578;BME280;63173;49.086;33.418;2023-03-12T04:48:04;98336.88;;;5.25;100.00
74578;BME280;63173;49.086;33.418;2023-03-12T04:50:29;98352.22;;;5.38;100.00
74578;BME280;63173;49.086;33.418;2023-03-12T04:52:55;98354.16;;;5.37;100.00
74578;BME280;63173;49.086;33.418;2023-03-12T04:55:20;98361.72;;;5.35;100.00
74578;BME280;63173;49.086;33.418;2023-03-12T04:57:46;98352.84;;;5.35;100.00
74578;BME280;63173;49.086;33.418;2023-03-12T05:00:11;98383.53;;;5.34;100.00
74578;BME280;63173;49.086;33.418;2023-03-12T05:02:38;98383.25;;;5.35;100.00
74578;BME280;63173;49.086;33.418;2023-03-12T05:05:05;98380.25;;;5.37;100.00
74578;BME280;63173;49.086;33.418;2023-03-12T05:07:30;98391.91;;;5.32;100.00
74578;BME280;63173;49.086;33.418;2023-03-12T05:09:56;98386.16;;;5.39;100.00
74578;BME280;63173;49.086;33.418;2023-03-12T05:12:21;98393.78;;;5.32;100.00
74578;BME280;63173;49.086;33.418;2023-03-12T05:14:47;98383.03;;;5.32;100.00
74578;BME280;63173;49.086;33.418;2023-03-12T05:17:12;98385.34;;;5.38;100.00
74578;BME280;63173;49.086;33.418;2023-03-12T05:19:38;98394.91;;;5.31;100.00
74578;BME280;63173;49.086;33.418;2023-03-12T05:22:03;98400.50;;;5.34;100.00
74578;BME280;63173;49.086;33.418;2023-03-12T05:24:29;98396.59;;;5.27;100.00
74578;BME280;63173;49.086;33.418;2023-03-12T05:26:54;98420.72;;;5.32;100.00
74578;BME280;63173;49.086;33.418;2023-03-12T05:29:19;98430.91;;;5.35;100.00
74578;BME280;63173;49.086;33.418;2023-03-12T05:31:45;98419.75;;;5.28;100.00
74578;BME280;63173;49.086;33.418;2023-03-12T05:34:12;98429.19;;;5.25;100.00
74578;BME280;63173;49.086;33.418;2023-03-12T05:36:38;98433.38;;;5.18;100.00
74578;BME280;63173;49.086;33.418;2023-03-12T05:39:04;98445.72;;;5.19;99.83
74578;BME280;63173;49.086;33.418;2023-03-12T05:41:29;98456.69;;;5.09;100.00
74578;BME280;63173;49.086;33.418;2023-03-12T05:43:56;98435.94;;;5.09;100.00
74578;BME280;63173;49.086;33.418;2023-03-12T05:46:23;98458.81;;;4.93;99.32
74578;BME280;63173;49.086;33.418;2023-03-12T05:48:49;98463.69;;;4.91;100.00
74578;BME280;63173;49.086;33.418;2023-03-12T05:51:15;98472.28;;;4.93;98.80
74578;BME280;63173;49.086;33.418;2023-03-12T05:53:40;98481.34;;;4.97;98.48
74578;BME280;63173;49.086;33.418;2023-03-12T05:56:10;98507.56;;;4.73;99.41
74578;BME280;63173;49.086;33.418;2023-03-12T05:58:37;98515.47;;;4.64;99.77
74578;BME280;63173;49.086;33.418;2023-03-12T06:01:03;98517.66;;;4.44;100.00
74578;BME280;63173;49.086;33.418;2023-03-12T06:03:29;98529.34;;;4.34;100.00
74578;BME280;63173;49.086;33.418;2023-03-12T06:05:54;98521.41;;;4.24;100.00
74578;BME280;63173;49.086;33.418;2023-03-12T06:08:22;98520.69;;;4.37;100.00
74578;BME280;63173;49.086;33.418;2023-03-12T06:10:51;98534.72;;;4.34;100.00
74578;BME280;63173;49.086;33.418;2023-03-12T06:13:22;98547.75;;;4.22;100.00
74578;BME280;63173;49.086;33.418;2023-03-12T06:15:48;98547.50;;;4.24;100.00
74578;BME280;63173;49.086;33.418;2023-03-12T06:18:14;98586.25;;;4.18;100.00
74578;BME280;63173;49.086;33.418;2023-03-12T06:20:40;98570.81;;;4.28;100.00
74578;BME280;63173;49.086;33.418;2023-03-12T06:23:05;98606.28;;;4.07;99.18
74578;BME280;63173;49.086;33.418;2023-03-12T06:25:31;98588.44;;;4.16;99.54
74578;BME280;63173;49.086;33.418;2023-03-12T06:27:56;98614.66;;;4.00;97.44
74578;BME280;63173;49.086;33.418;2023-03-12T06:30:22;98611.56;;;3.88;97.93
74578;BME280;63173;49.086;33.418;2023-03-12T06:32:47;98621.84;;;3.81;97.67
74578;BME280;63173;49.086;33.418;2023-03-12T06:35:13;98647.56;;;3.87;96.61
74578;BME280;63173;49.086;33.418;2023-03-12T06:37:38;98654.94;;;3.71;97.16
74578;BME280;63173;49.086;33.418;2023-03-12T06:40:04;98647.34;;;3.78;97.00
74578;BME280;63173;49.086;33.418;2023-03-12T06:42:32;98659.25;;;3.72;96.85
74578;BME280;63173;49.086;33.418;2023-03-12T06:44:57;98659.50;;;3.71;96.13
74578;BME280;63173;49.086;33.418;2023-03-12T06:47:23;98686.09;;;3.72;97.13
74578;BME280;63173;49.086;33.418;2023-03-12T06:49:48;98691.78;;;3.66;97.83
74578;BME280;63173;49.086;33.418;2023-03-12T06:52:14;98690.72;;;3.62;97.27
74578;BME280;63173;49.086;33.418;2023-03-12T06:54:39;98710.72;;;3.46;97.85
74578;BME280;63173;49.086;33.418;2023-03-12T06:57:05;98702.16;;;3.44;96.61
74578;BME280;63173;49.086;33.418;2023-03-12T06:59:30;98702.22;;;3.34;97.88
74578;BME280;63173;49.086;33.418;2023-03-12T07:01:55;98713.22;;;3.32;96.79
74578;BME280;63173;49.086;33.418;2023-03-12T07:04:21;98719.94;;;3.35;96.49
74578;BME280;63173;49.086;33.418;2023-03-12T07:06:46;98726.88;;;3.36;97.07
74578;BME280;63173;49.086;33.418;2023-03-12T07:09:15;98731.00;;;3.23;96.64
74578;BME280;63173;49.086;33.418;2023-03-12T07:11:42;98774.25;;;3.07;96.88
74578;BME280;63173;49.086;33.418;2023-03-12T07:14:07;98745.78;;;3.16;94.16
74578;BME280;63173;49.086;33.418;2023-03-12T07:16:33;98774.94;;;3.32;95.94
74578;BME280;63173;49.086;33.418;2023-03-12T07:18:59;98753.31;;;3.09;93.69
74578;BME280;63173;49.086;33.418;2023-03-12T07:21:24;98778.59;;;3.03;93.41
74578;BME280;63173;49.086;33.418;2023-03-12T07:23:50;98760.56;;;3.13;93.25
74578;BME280;63173;49.086;33.418;2023-03-12T07:26:16;98782.84;;;3.04;92.85
74578;BME280;63173;49.086;33.418;2023-03-12T07:28:42;98808.88;;;3.03;92.53
74578;BME280;63173;49.086;33.418;2023-03-12T07:31:07;98789.56;;;3.06;92.67
74578;BME280;63173;49.086;33.418;2023-03-12T07:33:33;98791.75;;;2.94;91.87
74578;BME280;63173;49.086;33.418;2023-03-12T07:35:59;98789.81;;;3.10;92.27
74578;BME280;63173;49.086;33.418;2023-03-12T07:38:25;98798.63;;;3.15;90.51
74578;BME280;63173;49.086;33.418;2023-03-12T07:40:52;98815.00;;;3.14;89.65
74578;BME280;63173;49.086;33.418;2023-03-12T07:43:18;98830.06;;;3.05;88.99
74578;BME280;63173;49.086;33.418;2023-03-12T07:45:44;98821.97;;;3.15;89.97
74578;BME280;63173;49.086;33.418;2023-03-12T07:48:09;98832.13;;;3.28;91.11
74578;BME280;63173;49.086;33.418;2023-03-12T07:50:36;98826.56;;;3.09;91.68
74578;BME280;63173;49.086;33.418;2023-03-12T07:53:03;98852.38;;;2.85;90.78
74578;BME280;63173;49.086;33.418;2023-03-12T07:55:29;98829.06;;;2.85;92.25
74578;BME280;63173;49.086;33.418;2023-03-12T07:57:54;98841.88;;;2.94;92.08
74578;BME280;63173;49.086;33.418;2023-03-12T08:00:22;98866.06;;;2.73;92.50
74578;BME280;63173;49.086;33.418;2023-03-12T08:02:48;98869.81;;;2.77;92.55
74578;BME280;63173;49.086;33.418;2023-03-12T08:05:13;98871.97;;;2.75;93.89
74578;BME280;63173;49.086;33.418;2023-03-12T08:07:39;98865.19;;;3.03;93.71
74578;BME280;63173;49.086;33.418;2023-03-12T08:10:06;98877.56;;;2.94;92.27
74578;BME280;63173;49.086;33.418;2023-03-12T08:12:32;98869.97;;;3.16;93.25
74578;BME280;63173;49.086;33.418;2023-03-12T08:14:58;98880.25;;;2.89;92.93
74578;BME280;63173;49.086;33.418;2023-03-12T08:17:23;98892.06;;;2.93;93.09
74578;BME280;63173;49.086;33.418;2023-03-12T08:19:49;98910.28;;;2.81;91.08
74578;BME280;63173;49.086;33.418;2023-03-12T08:22:14;98907.88;;;3.05;92.63
74578;BME280;63173;49.086;33.418;2023-03-12T08:24:40;98970.91;;;2.77;90.53
74578;BME280;63173;49.086;33.418;2023-03-12T08:27:05;98937.13;;;2.76;92.08
74578;BME280;63173;49.086;33.418;2023-03-12T08:29:31;98951.88;;;2.83;91.07
74578;BME280;63173;49.086;33.418;2023-03-12T08:31:57;98968.19;;;2.67;90.79
74578;BME280;63173;49.086;33.418;2023-03-12T08:34:23;98946.50;;;2.78;91.25
74578;BME280;63173;49.086;33.418;2023-03-12T08:36:48;98993.16;;;2.72;90.85
74578;BME280;63173;49.086;33.418;2023-03-12T08:39:14;99012.69;;;2.48;91.68
74578;BME280;63173;49.086;33.418;2023-03-12T08:41:39;98996.31;;;2.39;93.10
74578;BME280;63173;49.086;33.418;2023-03-12T08:44:05;99000.88;;;2.39;92.51
74578;BME280;63173;49.086;33.418;2023-03-12T08:46:30;98992.28;;;2.37;92.71
74578;BME280;63173;49.086;33.418;2023-03-12T08:48:56;99007.84;;;2.40;91.42
74578;BME280;63173;49.086;33.418;2023-03-12T08:51:21;99013.78;;;2.67;91.92
74578;BME280;63173;49.086;33.418;2023-03-12T08:53:47;99035.16;;;2.37;89.46
74578;BME280;63173;49.086;33.418;2023-03-12T08:56:12;99040.56;;;2.42;89.23
74578;BME280;63173;49.086;33.418;2023-03-12T08:58:38;99048.03;;;2.40;89.00
74578;BME280;63173;49.086;33.418;2023-03-12T09:01:07;99065.25;;;2.59;88.71
74578;BME280;63173;49.086;33.418;2023-03-12T09:03:33;99076.53;;;2.66;89.54
74578;BME280;63173;49.086;33.418;2023-03-12T09:06:07;99056.94;;;2.55;89.93
74578;BME280;63173;49.086;33.418;2023-03-12T09:08:38;99033.63;;;2.61;90.65
74578;BME280;63173;49.086;33.418;2023-03-12T09:11:04;99102.47;;;2.40;91.16
74578;BME280;63173;49.086;33.418;2023-03-12T09:13:29;99078.56;;;2.34;91.78
74578;BME280;63173;49.086;33.418;2023-03-12T09:16:01;99087.38;;;2.19;90.96
74578;BME280;63173;49.086;33.418;2023-03-12T09:18:28;99094.31;;;2.15;91.55
74578;BME280;63173;49.086;33.418;2023-03-12T09:20:54;99134.94;;;2.02;91.89
74578;BME280;63173;49.086;33.418;2023-03-12T09:23:19;99130.16;;;2.04;90.85
74578;BME280;63173;49.086;33.418;2023-03-12T09:25:45;99129.34;;;2.04;90.31
74578;BME280;63173;49.086;33.418;2023-03-12T09:28:11;99141.13;;;2.08;89.65
74578;BME280;63173;49.086;33.418;2023-03-12T09:30:36;99161.91;;;2.32;88.58
74578;BME280;63173;49.086;33.418;2023-03-12T09:33:02;99139.16;;;2.40;87.25
74578;BME280;63173;49.086;33.418;2023-03-12T09:35:28;99201.53;;;2.25;86.16
74578;BME280;63173;49.086;33.418;2023-03-12T09:37:55;99181.13;;;2.19;85.51
74578;BME280;63173;49.086;33.418;2023-03-12T09:40:24;99199.81;;;2.09;86.85
74578;BME280;63173;49.086;33.418;2023-03-12T09:43:06;99169.25;;;2.05;87.07
74578;BME280;63173;49.086;33.418;2023-03-12T09:45:41;99182.78;;;2.30;86.37
74578;BME280;63173;49.086;33.418;2023-03-12T09:48:13;99237.56;;;2.08;86.06
74578;BME280;63173;49.086;33.418;2023-03-12T09:50:41;99187.56;;;2.23;86.13
74578;BME280;63173;49.086;33.418;2023-03-12T09:55:57;99201.91;;;2.49;85.21
74578;BME280;63173;49.086;33.418;2023-03-12T09:58:27;99204.78;;;2.37;85.32
74578;BME280;63173;49.086;33.418;2023-03-12T10:06:10;99192.16;;;2.90;84.25
74578;BME280;63173;49.086;33.418;2023-03-12T10:21:46;99223.91;;;2.56;84.23
74578;BME280;63173;49.086;33.418;2023-03-12T10:24:26;99248.28;;;2.49;83.81
74578;BME280;63173;49.086;33.418;2023-03-12T10:26:56;99295.28;;;2.25;83.96
74578;BME280;63173;49.086;33.418;2023-03-12T10:29:38;99294.09;;;2.11;83.89
74578;BME280;63173;49.086;33.418;2023-03-12T10:32:12;99277.94;;;2.38;84.84
74578;BME280;63173;49.086;33.418;2023-03-12T10:39:51;99358.94;;;2.13;86.45
74578;BME280;63173;49.086;33.418;2023-03-12T10:42:20;99324.97;;;2.19;86.57
74578;BME280;63173;49.086;33.418;2023-03-12T10:44:50;99339.47;;;2.23;86.14
74578;BME280;63173;49.086;33.418;2023-03-12T10:50:22;99352.06;;;1.96;86.73
74578;BME280;63173;49.086;33.418;2023-03-12T10:52:50;99374.84;;;1.93;86.91
74578;BME280;63173;49.086;33.418;2023-03-12T10:55:27;99376.91;;;2.18;86.42
74578;BME280;63173;49.086;33.418;2023-03-12T10:57:54;99343.94;;;2.44;85.83
74578;BME280;63173;49.086;33.418;2023-03-12T11:00:25;99357.63;;;2.47;83.17
74578;BME280;63173;49.086;33.418;2023-03-12T11:03:05;99353.03;;;2.43;81.04
74578;BME280;63173;49.086;33.418;2023-03-12T11:05:34;99361.97;;;2.58;81.22
74578;BME280;63173;49.086;33.418;2023-03-12T11:08:02;99384.47;;;2.89;79.90
74578;BME280;63173;49.086;33.418;2023-03-12T11:13:00;99414.25;;;2.93;80.98
74578;BME280;63173;49.086;33.418;2023-03-12T11:15:39;99392.91;;;2.71;80.58
74578;BME280;63173;49.086;33.418;2023-03-12T11:21:10;99399.06;;;2.66;82.87
74578;BME280;63173;49.086;33.418;2023-03-12T11:24:22;99438.94;;;2.31;82.51
74578;BME280;63173;49.086;33.418;2023-03-12T11:26:30;99465.50;;;2.06;83.46
74578;BME280;63173;49.086;33.418;2023-03-12T11:29:04;99428.19;;;2.26;83.37
74578;BME280;63173;49.086;33.418;2023-03-12T11:31:36;99462.16;;;2.21;81.08
74578;BME280;63173;49.086;33.418;2023-03-12T11:34:11;99457.81;;;2.41;79.63
74578;BME280;63173;49.086;33.418;2023-03-12T11:36:42;99488.84;;;2.37;78.78
74578;BME280;63173;49.086;33.418;2023-03-12T11:51:07;99537.47;;;2.46;73.68
74578;BME280;63173;49.086;33.418;2023-03-12T11:56:44;99517.09;;;2.76;74.75
74578;BME280;63173;49.086;33.418;2023-03-12T11:59:36;99542.97;;;2.61;74.37
74578;BME280;63173;49.086;33.418;2023-03-12T12:05:39;99530.34;;;2.35;78.92
74578;BME280;63173;49.086;33.418;2023-03-12T12:16:05;99607.03;;;1.76;81.99
74578;BME280;63173;49.086;33.418;2023-03-12T12:26:43;99588.19;;;2.09;80.18
74578;BME280;63173;49.086;33.418;2023-03-12T12:31:50;99586.22;;;2.21;79.49
74578;BME280;63173;49.086;33.418;2023-03-12T12:34:43;99600.91;;;2.40;79.54
74578;BME280;63173;49.086;33.418;2023-03-12T12:37:53;99591.69;;;2.31;80.35
74578;BME280;63173;49.086;33.418;2023-03-12T12:40:33;99640.69;;;2.27;79.60
74578;BME280;63173;49.086;33.418;2023-03-12T12:43:24;99622.22;;;2.30;79.25
74578;BME280;63173;49.086;33.418;2023-03-12T12:45:58;99654.81;;;2.22;78.95
74578;BME280;63173;49.086;33.418;2023-03-12T12:48:35;99628.91;;;2.49;78.30
74578;BME280;63173;49.086;33.418;2023-03-12T12:51:03;99626.75;;;2.30;77.87
74578;BME280;63173;49.086;33.418;2023-03-12T12:53:37;99643.28;;;2.43;77.79
74578;BME280;63173;49.086;33.418;2023-03-12T12:56:10;99641.31;;;2.55;77.23
74578;BME280;63173;49.086;33.418;2023-03-12T12:58:45;99646.03;;;2.48;76.54
74578;BME280;63173;49.086;33.418;2023-03-12T13:01:17;99670.81;;;2.39;76.32
74578;BME280;63173;49.086;33.418;2023-03-12T13:03:44;99666.22;;;2.34;75.05
74578;BME280;63173;49.086;33.418;2023-03-12T13:06:10;99655.13;;;2.47;75.32
74578;BME280;63173;49.086;33.418;2023-03-12T13:13:48;99674.75;;;3.54;70.55
74578;BME280;63173;49.086;33.418;2023-03-12T13:19:00;99664.09;;;4.53;65.03
74578;BME280;63173;49.086;33.418;2023-03-12T13:31:55;99668.81;;;4.93;61.28
74578;BME280;63173;49.086;33.418;2023-03-12T13:36:49;99649.50;;;5.21;62.16
74578;BME280;63173;49.086;33.418;2023-03-12T13:49:41;99692.63;;;5.61;58.99
74578;BME280;63173;49.086;33.418;2023-03-12T13:54:56;99704.50;;;5.75;56.47
74578;BME280;63173;49.086;33.418;2023-03-12T13:57:28;99694.53;;;5.96;55.43
74578;BME280;63173;49.086;33.418;2023-03-12T13:59:56;99710.97;;;6.04;55.15
74578;BME280;63173;49.086;33.418;2023-03-12T14:02:32;99712.88;;;6.19;55.41
74578;BME280;63173;49.086;33.418;2023-03-12T14:05:08;99714.97;;;6.27;56.36
74578;BME280;63173;49.086;33.418;2023-03-12T14:15:50;99722.84;;;5.88;55.14
74578;BME280;63173;49.086;33.418;2023-03-12T14:18:22;99733.56;;;6.38;53.05
74578;BME280;63173;49.086;33.418;2023-03-12T14:20:57;99746.00;;;6.34;52.95
74578;BME280;63173;49.086;33.418;2023-03-12T14:23:27;99750.59;;;6.14;53.80
74578;BME280;63173;49.086;33.418;2023-03-12T14:25:59;99749.50;;;6.35;53.38
74578;BME280;63173;49.086;33.418;2023-03-12T14:28:26;99749.41;;;6.75;53.45
74578;BME280;63173;49.086;33.418;2023-03-12T14:31:01;99758.03;;;6.72;52.18
74578;BME280;63173;49.086;33.418;2023-03-12T14:36:15;99768.00;;;6.82;51.77
74578;BME280;63173;49.086;33.418;2023-03-12T14:38:45;99773.94;;;6.84;51.43
74578;BME280;63173;49.086;33.418;2023-03-12T14:41:20;99770.69;;;7.89;50.25
74578;BME280;63173;49.086;33.418;2023-03-12T14:43:51;99781.31;;;7.27;51.70
74578;BME280;63173;49.086;33.418;2023-03-12T14:46:20;99796.16;;;6.50;52.73
74578;BME280;63173;49.086;33.418;2023-03-12T14:48:51;99784.19;;;6.82;53.61
74578;BME280;63173;49.086;33.418;2023-03-12T14:51:26;99788.53;;;6.78;53.24
74578;BME280;63173;49.086;33.418;2023-03-12T14:53:52;99805.84;;;6.72;53.83
74578;BME280;63173;49.086;33.418;2023-03-12T14:56:31;99812.00;;;6.92;52.49
74578;BME280;63173;49.086;33.418;2023-03-12T14:59:03;99807.22;;;6.29;56.01
74578;BME280;63173;49.086;33.418;2023-03-12T15:01:44;99820.19;;;6.17;55.84
74578;BME280;63173;49.086;33.418;2023-03-12T15:04:15;99823.13;;;6.65;54.67